Time;durP1;ratioP1;P1;durP2;ratioP2;P2;SDS_P1;SDS_P2;PMS_P1;PMS_P2;Temp;Humidity;BMP_temperature;BMP_pressure;BME280_temperature;BME280_humidity;BME280_pressure;Samples;Min_cycle;Max_cycle;Signal;HPM_P1;HPM_P2
2024/01/23 00:01:23;;;;;;;57.63;7.95;;;;;;;;;;6116077;23;20085;-63
2024/01/23 00:03:50;;;;;;;74.40;10.13;;;;;;;;;;6114806;23;20018;-63
2024/01/23 00:06:24;;;;;;;54.17;7.20;;;;;;;;;;6115770;23;20331;-63
2024/01/23 00:08:53;;;;;;;;;;;;;;;;;;6116803;23;20107;-63
2024/01/23 00:11:20;;;;;;;54.20;8.80;;;;;;;;;;6116480;23;19976;-63
2024/01/23 00:13:54;;;;;;;57.75;7.88;;;;;;;;;;6113383;23;20026;-63
2024/01/23 00:16:41;;;;;;;32.67;5.68;;;;;;;;;;6116178;23;20108;-64
2024/01/23 00:19:15;;;;;;;51.45;8.52;;;;;;;;;;6117659;23;20049;-65
2024/01/23 00:21:42;;;;;;;51.85;8.77;;;;;;;;;;6115715;23;20112;-64
2024/01/23 00:24:22;;;;;;;64.15;9.05;;;;;;;;;;6114982;23;20030;-64
2024/01/23 00:26:50;;;;;;;41.80;6.75;;;;;;;;;;6116337;23;20565;-62
2024/01/23 00:29:24;;;;;;;48.03;5.78;;;;;;;;;;6116446;23;20555;-64
2024/01/23 00:31:58;;;;;;;59.55;9.90;;;;;;;;;;6114179;23;20233;-63
2024/01/23 00:34:32;;;;;;;58.33;9.52;;;;;;;;;;6116215;23;20042;-63
2024/01/23 00:37:01;;;;;;;66.32;7.97;;;;;;;;;;6115400;23;20030;-63
2024/01/23 00:39:28;;;;;;;38.83;5.70;;;;;;;;;;6115014;23;20026;-63
2024/01/23 00:42:02;;;;;;;57.70;9.30;;;;;;;;;;6115920;23;20057;-63
2024/01/23 00:44:29;;;;;;;50.40;6.60;;;;;;;;;;6118158;23;20028;-64
2024/01/23 00:47:03;;;;;;;63.65;8.05;;;;;;;;;;6117859;23;20026;-64
2024/01/23 00:49:30;;;;;;;;;;;;;;;;;;6118240;23;20022;-64
2024/01/23 00:51:57;;;;;;;54.25;7.25;;;;;;;;;;6116140;23;20065;-64
2024/01/23 00:54:31;;;;;;;71.75;8.90;;;;;;;;;;6117848;23;20030;-51
2024/01/23 00:56:58;;;;;;;49.10;6.88;;;;;;;;;;6115614;23;20389;-62
2024/01/23 00:59:26;;;;;;;54.17;7.88;;;;;;;;;;6116615;23;20034;-61
2024/01/23 01:02:00;;;;;;;61.25;9.13;;;;;;;;;;6116966;23;20026;-61
2024/01/23 01:04:27;;;;;;;;;;;;;;;;;;6117450;23;20022;-61
2024/01/23 01:07:01;;;;;;;47.25;6.78;;;;;;;;;;6116087;23;20405;-61
2024/01/23 01:09:28;;;;;;;50.97;6.72;;;;;;;;;;6118078;23;20479;-61
2024/01/23 01:11:56;;;;;;;60.20;7.97;;;;;;;;;;6116897;23;20026;-61
2024/01/23 01:14:30;;;;;;;57.00;7.68;;;;;;;;;;6116226;23;20045;-61
2024/01/23 01:16:57;;;;;;;69.78;9.27;;;;;;;;;;6118323;23;20030;-62
2024/01/23 01:19:24;;;;;;;61.05;9.80;;;;;;;;;;6115128;23;20077;-61
2024/01/23 01:21:58;;;;;;;48.47;7.45;;;;;;;;;;6112414;23;20109;-62
2024/01/23 01:24:31;;;;;;;51.25;8.15;;;;;;;;;;6117671;23;20030;-63
2024/01/23 01:27:06;;;;;;;57.30;7.95;;;;;;;;;;6118124;23;20076;-67
2024/01/23 01:29:34;;;;;;;47.67;7.32;;;;;;;;;;6117870;23;20026;-68
2024/01/23 01:32:01;;;;;;;65.47;7.60;;;;;;;;;;6118469;23;20097;-68
2024/01/23 01:34:35;;;;;;;52.42;8.23;;;;;;;;;;6119601;23;20029;-68
2024/01/23 01:37:02;;;;;;;;;;;;;;;;;;6110259;23;20069;-68
2024/01/23 01:39:37;;;;;;;50.88;6.38;;;;;;;;;;6116180;23;19921;-68
2024/01/23 01:42:04;;;;;;;74.82;9.05;;;;;;;;;;6115206;23;20141;-62
2024/01/23 01:44:32;;;;;;;56.08;7.85;;;;;;;;;;6114149;23;20073;-62
2024/01/23 01:47:06;;;;;;;63.20;9.57;;;;;;;;;;6114571;23;20190;-61
2024/01/23 01:49:33;;;;;;;67.45;8.95;;;;;;;;;;6114955;23;20038;-62
2024/01/23 01:52:07;;;;;;;70.15;8.80;;;;;;;;;;6113295;23;20413;-61
2024/01/23 01:54:34;;;;;;;;;;;;;;;;;;6114738;23;20037;-61
2024/01/23 01:57:01;;;;;;;73.25;8.75;;;;;;;;;;6114186;23;20203;-61
2024/01/23 01:59:36;;;;;;;71.30;8.68;;;;;;;;;;6114855;23;20444;-61
2024/01/23 02:02:05;;;;;;;47.13;9.20;;;;;;;;;;6114899;23;20026;-61
2024/01/23 02:04:39;;;;;;;44.35;6.68;;;;;;;;;;6113948;23;20030;-61
2024/01/23 02:07:06;;;;;;;59.78;9.15;;;;;;;;;;6112296;23;20026;-62
2024/01/23 02:09:41;;;;;;;60.55;8.10;;;;;;;;;;6116246;23;20022;-51
2024/01/23 02:12:08;;;;;;;76.93;9.40;;;;;;;;;;6112837;23;20033;-54
2024/01/23 02:14:36;;;;;;;55.50;7.88;;;;;;;;;;6113953;23;20028;-55
2024/01/23 02:17:10;;;;;;;61.45;8.65;;;;;;;;;;6115530;23;20036;-54
2024/01/23 02:19:37;;;;;;;59.13;9.13;;;;;;;;;;6114861;23;20186;-55
2024/01/23 02:22:11;;;;;;;46.63;7.78;;;;;;;;;;6114915;23;20022;-61
2024/01/23 02:24:44;;;;;;;57.75;7.82;;;;;;;;;;6113661;23;20104;-68
2024/01/23 02:27:18;;;;;;;45.15;6.75;;;;;;;;;;6113746;23;20029;-68
2024/01/23 02:29:52;;;;;;;51.95;5.65;;;;;;;;;;6115591;23;20045;-68
2024/01/23 02:32:19;;;;;;;74.97;8.52;;;;;;;;;;6113394;23;20137;-68
2024/01/23 02:34:53;;;;;;;61.42;8.65;;;;;;;;;;6111084;23;20025;-68
2024/01/23 02:37:20;;;;;;;66.07;8.40;;;;;;;;;;6112858;23;20101;-68
2024/01/23 02:39:47;;;;;;;46.45;6.15;;;;;;;;;;6116127;23;20030;-61
2024/01/23 02:42:21;;;;;;;53.78;6.95;;;;;;;;;;6114218;23;20085;-62
2024/01/23 02:44:48;;;;;;;77.63;10.13;;;;;;;;;;6109907;23;20068;-62
2024/01/23 02:47:22;;;;;;;55.97;8.32;;;;;;;;;;6114735;23;20026;-62
2024/01/23 02:49:50;;;;;;;71.72;9.10;;;;;;;;;;6115469;23;20026;-62
2024/01/23 02:52:17;;;;;;;;;;;;;;;;;;6114373;23;20033;-60
2024/01/23 02:54:51;;;;;;;49.55;6.28;;;;;;;;;;6114848;23;20451;-61
2024/01/23 02:57:18;;;;;;;63.10;7.65;;;;;;;;;;6115442;23;20026;-61
2024/01/23 02:59:45;;;;;;;51.70;7.18;;;;;;;;;;6115485;23;20461;-60
2024/01/23 03:02:19;;;;;;;61.13;8.10;;;;;;;;;;6115632;23;20049;-61
2024/01/23 03:04:46;;;;;;;59.97;7.80;;;;;;;;;;6116470;23;20026;-61
2024/01/23 03:07:20;;;;;;;40.53;6.70;;;;;;;;;;6114511;23;20471;-61
2024/01/23 03:09:47;;;;;;;47.08;6.72;;;;;;;;;;6115063;23;20088;-60
2024/01/23 03:12:18;;;;;;;30.90;4.65;;;;;;;;;;6116211;23;20411;-61
2024/01/23 03:14:52;;;;;;;66.10;9.10;;;;;;;;;;6115063;23;20022;-61
2024/01/23 03:17:19;;;;;;;46.05;6.85;;;;;;;;;;6116231;23;20467;-62
2024/01/23 03:19:53;;;;;;;59.45;7.90;;;;;;;;;;6117364;23;20026;-63
2024/01/23 03:22:20;;;;;;;;;;;;;;;;;;6117077;23;20060;-61
2024/01/23 03:24:47;;;;;;;42.28;6.32;;;;;;;;;;6116656;23;20083;-61
2024/01/23 03:27:27;;;;;;;51.28;6.80;;;;;;;;;;6118395;23;20021;-62
2024/01/23 03:29:55;;;;;;;61.25;7.60;;;;;;;;;;6117604;23;20053;-62
2024/01/23 03:32:29;;;;;;;69.63;9.60;;;;;;;;;;6116272;23;20029;-61
2024/01/23 03:35:03;;;;;;;;;;;;;;;;;;6117938;23;20401;-63
2024/01/23 03:37:37;;;;;;;65.65;8.48;;;;;;;;;;6117341;23;20228;-61
2024/01/23 03:40:05;;;;;;;;;;;;;;;;;;6117328;23;20104;-62
2024/01/23 03:42:33;;;;;;;55.63;8.13;;;;;;;;;;6116392;23;19921;-61
2024/01/23 03:45:08;;;;;;;74.05;8.18;;;;;;;;;;6115396;23;20018;-61
2024/01/23 03:47:35;;;;;;;60.60;7.75;;;;;;;;;;6117252;23;20041;-61
2024/01/23 03:50:09;;;;;;;79.47;9.15;;;;;;;;;;6117080;23;20026;-63
2024/01/23 03:52:36;;;;;;;69.30;8.93;;;;;;;;;;6115907;23;20404;-63
2024/01/23 03:55:04;;;;;;;46.85;7.40;;;;;;;;;;6117231;23;20022;-63
2024/01/23 03:57:38;;;;;;;68.35;8.18;;;;;;;;;;6115473;23;20531;-63
2024/01/23 04:00:07;;;;;;;60.00;6.50;;;;;;;;;;6116078;23;20463;-63
2024/01/23 04:02:42;;;;;;;73.50;8.57;;;;;;;;;;6116675;23;20495;-63
2024/01/23 04:05:09;;;;;;;72.50;8.63;;;;;;;;;;6118740;23;20491;-49
2024/01/23 04:07:36;;;;;;;64.13;8.35;;;;;;;;;;6116821;23;20026;-53
2024/01/23 04:10:11;;;;;;;58.55;9.23;;;;;;;;;;6116173;23;20026;-53
2024/01/23 04:12:38;;;;;;;67.00;8.38;;;;;;;;;;6117668;23;20346;-53
2024/01/23 04:15:12;;;;;;;49.58;6.80;;;;;;;;;;6114675;23;20375;-51
2024/01/23 04:17:46;;;;;;;70.82;7.70;;;;;;;;;;6111156;23;20476;-66
2024/01/23 04:20:13;;;;;;;;;;;;;;;;;;6116673;23;20057;-68
2024/01/23 04:22:40;;;;;;;59.80;8.48;;;;;;;;;;6114137;23;20311;-69
2024/01/23 04:25:21;;;;;;;64.95;8.45;;;;;;;;;;6115771;23;20073;-69
2024/01/23 04:27:55;;;;;;;61.92;7.85;;;;;;;;;;6116669;23;20049;-68
2024/01/23 04:30:22;;;;;;;65.80;7.30;;;;;;;;;;6117224;23;20022;-68
2024/01/23 04:32:50;;;;;;;62.05;8.70;;;;;;;;;;6118734;23;20030;-62
2024/01/23 04:35:24;;;;;;;71.40;8.68;;;;;;;;;;6118238;23;20564;-62
2024/01/23 04:37:51;;;;;;;56.78;7.50;;;;;;;;;;6116095;23;20026;-62
2024/01/23 04:40:18;;;;;;;67.57;9.70;;;;;;;;;;6117602;23;20101;-62
2024/01/23 04:42:53;;;;;;;57.25;8.60;;;;;;;;;;6117214;23;20077;-62
2024/01/23 04:45:20;;;;;;;63.00;8.88;;;;;;;;;;6117723;23;20124;-52
2024/01/23 04:47:54;;;;;;;46.65;6.63;;;;;;;;;;6113412;23;20357;-68
2024/01/23 04:50:21;;;;;;;64.18;7.75;;;;;;;;;;6118639;23;20069;-67
2024/01/23 04:52:51;;;;;;;45.20;9.80;;;;;;;;;;6116782;23;20483;-68
2024/01/23 04:55:25;;;;;;;56.53;7.38;;;;;;;;;;6118642;23;20025;-68
2024/01/23 04:57:52;;;;;;;57.15;8.23;;;;;;;;;;6114207;23;20507;-68
2024/01/23 05:00:26;;;;;;;57.58;8.30;;;;;;;;;;6116844;23;20114;-67
2024/01/23 05:02:53;;;;;;;;;;;;;;;;;;6117200;23;20073;-61
2024/01/23 05:05:20;;;;;;;58.88;8.38;;;;;;;;;;6117700;23;19921;-61
2024/01/23 05:07:55;;;;;;;61.78;8.68;;;;;;;;;;6116866;23;20029;-61
2024/01/23 05:10:22;;;;;;;;;;;;;;;;;;6117128;23;20101;-62
2024/01/23 05:12:49;;;;;;;55.25;8.63;;;;;;;;;;6117258;23;19916;-50
2024/01/23 05:15:23;;;;;;;64.60;9.57;;;;;;;;;;6115804;23;20530;-60
2024/01/23 05:17:50;;;;;;;68.75;8.57;;;;;;;;;;6115809;23;20025;-61
2024/01/23 05:20:24;;;;;;;49.28;7.43;;;;;;;;;;6115638;23;20026;-61
2024/01/23 05:22:51;;;;;;;;;;;;;;;;;;6110157;23;20084;-60
2024/01/23 05:25:19;;;;;;;66.30;8.18;;;;;;;;;;6113969;23;19925;-60
2024/01/23 05:27:53;;;;;;;53.88;6.82;;;;;;;;;;6114395;23;20408;-60
2024/01/23 05:30:20;;;;;;;52.30;7.45;;;;;;;;;;6114675;23;20022;-63
2024/01/23 05:32:54;;;;;;;60.00;8.02;;;;;;;;;;6116070;23;20342;-63
2024/01/23 05:35:28;;;;;;;52.83;6.25;;;;;;;;;;6113856;23;20097;-63
2024/01/23 05:38:02;;;;;;;60.25;6.90;;;;;;;;;;6114616;23;20081;-64
2024/01/23 05:40:36;;;;;;;51.90;7.15;;;;;;;;;;6115669;23;20397;-69
2024/01/23 05:43:09;;;;;;;66.47;8.80;;;;;;;;;;6113144;23;20384;-69
2024/01/23 05:45:44;;;;;;;63.50;9.38;;;;;;;;;;6113135;23;20033;-69
2024/01/23 05:48:11;;;;;;;;;;;;;;;;;;6108221;23;20026;-68
2024/01/23 05:50:39;;;;;;;49.88;6.32;;;;;;;;;;6117214;23;19917;-69
2024/01/23 05:53:13;;;;;;;58.17;6.65;;;;;;;;;;6114712;23;20034;-69
2024/01/23 05:55:40;;;;;;;50.28;8.65;;;;;;;;;;6116324;23;20026;-69
2024/01/23 05:58:14;;;;;;;60.47;7.95;;;;;;;;;;6116229;23;20468;-51
2024/01/23 06:00:41;;;;;;;65.47;8.60;;;;;;;;;;6117389;23;20032;-54
2024/01/23 06:03:08;;;;;;;;;;;;;;;;;;6117916;23;20024;-53
2024/01/23 06:05:42;;;;;;;63.58;8.32;;;;;;;;;;6111868;23;19955;-55
2024/01/23 06:08:16;;;;;;;71.55;9.27;;;;;;;;;;6113401;23;20033;-54
2024/01/23 06:10:43;;;;;;;65.93;8.68;;;;;;;;;;6117224;23;20081;-63
2024/01/23 06:13:10;;;;;;;80.85;9.85;;;;;;;;;;6115192;23;20371;-61
2024/01/23 06:15:44;;;;;;;75.68;10.88;;;;;;;;;;6117322;23;20123;-61
2024/01/23 06:18:12;;;;;;;;;;;;;;;;;;6116866;23;20065;-61
2024/01/23 06:20:46;;;;;;;66.22;8.13;;;;;;;;;;6117617;23;19932;-60
2024/01/23 06:23:13;;;;;;;68.60;9.85;;;;;;;;;;6111875;23;20022;-61
2024/01/23 06:25:40;;;;;;;63.80;7.93;;;;;;;;;;6112642;23;20085;-61
2024/01/23 06:28:14;;;;;;;63.25;9.13;;;;;;;;;;6117550;23;20022;-69
2024/01/23 06:30:41;;;;;;;48.03;6.35;;;;;;;;;;6116603;23;20033;-69
2024/01/23 06:33:15;;;;;;;65.07;8.85;;;;;;;;;;6114695;23;20021;-69
2024/01/23 06:35:42;;;;;;;;;;;;;;;;;;6116319;23;20026;-69
2024/01/23 06:38:09;;;;;;;50.60;6.35;;;;;;;;;;6114489;23;20331;-63
2024/01/23 06:40:43;;;;;;;43.47;6.20;;;;;;;;;;6116976;23;20030;-54
2024/01/23 06:43:10;;;;;;;;;;;;;;;;;;6116289;23;20026;-55
2024/01/23 06:45:44;;;;;;;41.38;5.47;;;;;;;;;;6112404;23;20292;-56
2024/01/23 06:48:11;;;;;;;58.33;6.65;;;;;;;;;;6116424;23;20108;-53
2024/01/23 06:50:39;;;;;;;66.65;7.00;;;;;;;;;;6116990;23;20466;-53
2024/01/23 06:53:13;;;;;;;37.10;5.45;;;;;;;;;;6115417;23;20081;-54
2024/01/23 06:55:40;;;;;;;60.60;6.70;;;;;;;;;;6117758;23;20026;-62
2024/01/23 06:58:07;;;;;;;48.83;6.68;;;;;;;;;;6116007;23;20026;-62
2024/01/23 07:00:41;;;;;;;47.13;6.97;;;;;;;;;;6116050;23;20076;-63
2024/01/23 07:03:09;;;;;;;36.70;5.03;;;;;;;;;;6116299;23;20069;-63
2024/01/23 07:05:46;;;;;;;40.15;4.95;;;;;;;;;;6115112;23;20472;-61
2024/01/23 07:08:14;;;;;;;46.38;6.00;;;;;;;;;;6116002;23;20026;-60
2024/01/23 07:10:41;;;;;;;38.05;6.60;;;;;;;;;;6117366;23;20085;-61
2024/01/23 07:13:18;;;;;;;47.75;5.25;;;;;;;;;;6114937;23;20026;-61
2024/01/23 07:15:45;;;;;;;49.30;6.97;;;;;;;;;;6115672;23;20081;-61
2024/01/23 07:18:12;;;;;;;41.90;5.38;;;;;;;;;;6115556;23;20030;-61
2024/01/23 07:20:46;;;;;;;40.55;4.85;;;;;;;;;;6116764;23;20034;-61
2024/01/23 07:23:14;;;;;;;;;;;;;;;;;;6117170;23;20101;-61
2024/01/23 07:25:41;;;;;;;38.88;5.03;;;;;;;;;;6118140;23;19917;-62
2024/01/23 07:28:15;;;;;;;43.92;4.75;;;;;;;;;;6116017;23;20032;-62
2024/01/23 07:31:01;;;;;;;39.90;4.93;;;;;;;;;;6117445;23;20503;-61
2024/01/23 07:33:35;;;;;;;42.75;4.85;;;;;;;;;;6116398;23;20022;-61
2024/01/23 07:36:02;;;;;;;;;;;;;;;;;;6112681;23;20018;-63
2024/01/23 07:38:29;;;;;;;45.95;5.72;;;;;;;;;;6116660;23;19921;-53
2024/01/23 07:41:03;;;;;;;41.72;5.53;;;;;;;;;;6118908;23;20396;-53
2024/01/23 07:43:30;;;;;;;44.40;6.40;;;;;;;;;;6117033;23;20125;-52
2024/01/23 07:46:04;;;;;;;41.60;4.65;;;;;;;;;;6115254;23;20026;-49
2024/01/23 07:48:31;;;;;;;30.95;4.40;;;;;;;;;;6118419;23;20262;-54
2024/01/23 07:50:59;;;;;;;43.30;5.32;;;;;;;;;;6117637;23;20045;-53
2024/01/23 07:53:33;;;;;;;40.03;4.07;;;;;;;;;;6118158;23;20097;-62
2024/01/23 07:56:01;;;;;;;48.47;5.30;;;;;;;;;;6119023;23;20100;-63
2024/01/23 07:58:35;;;;;;;34.10;4.38;;;;;;;;;;6116208;23;20109;-63
2024/01/23 08:01:03;;;;;;;31.77;4.22;;;;;;;;;;6119743;23;20068;-63
2024/01/23 08:03:30;;;;;;;34.03;4.63;;;;;;;;;;6117529;23;20100;-63
2024/01/23 08:06:04;;;;;;;30.80;4.22;;;;;;;;;;6116840;23;20022;-61
2024/01/23 08:08:31;;;;;;;;;;;;;;;;;;6117524;23;20022;-61
2024/01/23 08:11:05;;;;;;;33.17;4.55;;;;;;;;;;6118242;23;19921;-60
2024/01/23 08:13:32;;;;;;;33.03;3.95;;;;;;;;;;6116999;23;20026;-60
2024/01/23 08:16:00;;;;;;;34.85;4.43;;;;;;;;;;6115162;23;20022;-61
2024/01/23 08:18:34;;;;;;;33.90;4.47;;;;;;;;;;6118362;23;20022;-61
2024/01/23 08:21:01;;;;;;;42.13;5.05;;;;;;;;;;6119103;23;20037;-61
2024/01/23 08:23:42;;;;;;;36.35;4.60;;;;;;;;;;6116652;23;20460;-61
2024/01/23 08:26:15;;;;;;;30.50;4.32;;;;;;;;;;6088583;23;20026;-61
2024/01/23 08:28:59;;;;;;;;;;;;;;;;;;6088463;23;20022;-61
2024/01/23 08:31:27;;;;;;;;;;;;;;;;;;6087846;23;19925;-67
2024/01/23 08:34:01;;;;;;;29.92;4.35;;;;;;;;;;6087486;23;20348;-63
2024/01/23 08:36:35;;;;;;;31.42;3.75;;;;;;;;;;6088864;23;20101;-61
2024/01/23 08:39:09;;;;;;;32.50;4.53;;;;;;;;;;6088343;23;20097;-61
2024/01/23 08:41:43;;;;;;;22.98;3.90;;;;;;;;;;6087998;23;20068;-62
2024/01/23 08:44:10;;;;;;;31.73;4.10;;;;;;;;;;6087919;23;20023;-61
2024/01/23 08:46:37;;;;;;;;;;;;;;;;;;6088764;23;20405;-62
2024/01/23 08:49:11;;;;;;;39.40;4.13;;;;;;;;;;6088722;23;19984;-61
2024/01/23 08:51:38;;;;;;;;;;;;;;;;;;6090497;23;20022;-61
2024/01/23 08:54:13;;;;;;;27.35;4.18;;;;;;;;;;6088299;23;19917;-60
2024/01/23 08:56:41;;;;;;;30.63;5.75;;;;;;;;;;6089211;23;20022;-61
2024/01/23 08:59:08;;;;;;;27.50;4.57;;;;;;;;;;6087659;23;20393;-60
2024/01/23 09:01:42;;;;;;;29.63;4.47;;;;;;;;;;6089783;23;20034;-53
2024/01/23 09:04:09;;;;;;;;;;;;;;;;;;6088987;23;20022;-61
2024/01/23 09:06:43;;;;;;;28.67;4.53;;;;;;;;;;6088715;23;19917;-61
2024/01/23 09:09:10;;;;;;;;;;;;;;;;;;6089675;23;20319;-61
2024/01/23 09:11:38;;;;;;;23.52;4.10;;;;;;;;;;6090171;23;19921;-61
2024/01/23 09:14:12;;;;;;;19.95;3.45;;;;;;;;;;6087839;23;20026;-61
2024/01/23 09:16:39;;;;;;;16.33;3.30;;;;;;;;;;6086806;23;20033;-62
2024/01/23 09:19:13;;;;;;;18.58;3.38;;;;;;;;;;6087545;23;20401;-54
2024/01/23 09:21:40;;;;;;;16.88;3.08;;;;;;;;;;6088162;23;20085;-51
2024/01/23 09:24:22;;;;;;;24.70;4.03;;;;;;;;;;6092719;23;20097;-53
2024/01/23 09:26:59;;;;;;;24.30;4.03;;;;;;;;;;6117203;23;20032;-49
2024/01/23 09:29:33;;;;;;;21.25;3.97;;;;;;;;;;6116327;23;20101;-60
2024/01/23 09:32:07;;;;;;;19.88;3.28;;;;;;;;;;6117495;23;20041;-52
2024/01/23 09:34:36;;;;;;;29.48;4.32;;;;;;;;;;6117606;23;20022;-52
2024/01/23 09:37:10;;;;;;;19.63;3.10;;;;;;;;;;6117049;23;20030;-49
2024/01/23 09:39:44;;;;;;;22.63;3.85;;;;;;;;;;6116908;23;20364;-54
2024/01/23 09:42:12;;;;;;;16.75;3.28;;;;;;;;;;6116780;23;20064;-50
2024/01/23 09:44:49;;;;;;;32.33;3.72;;;;;;;;;;6118349;23;20437;-55
2024/01/23 09:47:16;;;;;;;20.48;3.80;;;;;;;;;;6117468;23;20496;-54
2024/01/23 09:49:44;;;;;;;20.90;3.53;;;;;;;;;;6116501;23;20080;-57
2024/01/23 09:52:19;;;;;;;17.00;2.90;;;;;;;;;;6118225;23;20018;-54
2024/01/23 09:54:46;;;;;;;24.48;3.08;;;;;;;;;;6115054;23;20037;-54
2024/01/23 09:57:14;;;;;;;15.13;3.13;;;;;;;;;;6116690;23;20018;-56
2024/01/23 09:59:48;;;;;;;24.60;3.97;;;;;;;;;;6117170;23;20021;-63
2024/01/23 10:02:15;;;;;;;;;;;;;;;;;;6118510;23;20096;-54
2024/01/23 10:04:43;;;;;;;18.88;4.53;;;;;;;;;;6115879;23;19921;-55
2024/01/23 10:07:17;;;;;;;23.67;4.68;;;;;;;;;;6117131;23;20029;-55
2024/01/23 10:09:48;;;;;;;23.85;3.75;;;;;;;;;;6117720;23;20034;-54
2024/01/23 10:12:22;;;;;;;19.92;3.60;;;;;;;;;;6117414;23;20072;-53
2024/01/23 10:14:51;;;;;;;22.13;4.20;;;;;;;;;;6115953;23;20080;-56
2024/01/23 10:17:18;;;;;;;21.15;3.67;;;;;;;;;;6116032;23;20077;-62
2024/01/23 10:19:52;;;;;;;30.85;4.40;;;;;;;;;;6116736;23;20041;-62
2024/01/23 10:22:20;;;;;;;21.33;4.60;;;;;;;;;;6116056;23;20022;-63
2024/01/23 10:25:00;;;;;;;27.58;4.65;;;;;;;;;;6110019;23;20100;-62
2024/01/23 10:27:33;;;;;;;17.88;3.60;;;;;;;;;;6116455;23;20022;-53
2024/01/23 10:30:07;;;;;;;25.80;4.20;;;;;;;;;;6114332;23;20076;-62
2024/01/23 10:32:34;;;;;;;;;;;;;;;;;;6116180;23;20483;-63
2024/01/23 10:35:03;;;;;;;20.80;3.80;;;;;;;;;;6115414;23;20308;-62
2024/01/23 10:37:38;;;;;;;25.73;3.58;;;;;;;;;;6112536;23;20022;-62
2024/01/23 10:40:06;;;;;;;23.45;3.90;;;;;;;;;;6116020;23;20085;-62
2024/01/23 10:42:40;;;;;;;23.80;3.83;;;;;;;;;;6115126;23;20482;-62
2024/01/23 10:45:16;;;;;;;30.75;4.35;;;;;;;;;;6116025;23;20030;-62
2024/01/23 10:47:56;;;;;;;31.30;4.78;;;;;;;;;;6114148;23;20317;-63
2024/01/23 10:50:24;;;;;;;34.97;4.72;;;;;;;;;;6114448;23;20037;-62
2024/01/23 10:53:05;;;;;;;27.80;3.58;;;;;;;;;;6115816;23;20034;-63
2024/01/23 10:55:39;;;;;;;25.05;4.03;;;;;;;;;;6116093;23;20026;-50
2024/01/23 10:58:19;;;;;;;28.63;4.03;;;;;;;;;;6115333;23;20534;-64
2024/01/23 11:00:48;;;;;;;26.65;4.63;;;;;;;;;;6115472;23;20108;-65
2024/01/23 11:03:22;;;;;;;29.23;5.57;;;;;;;;;;6112928;23;20061;-64
2024/01/23 11:05:49;;;;;;;;;;;;;;;;;;6118263;23;20032;-64
2024/01/23 11:08:17;;;;;;;22.95;3.75;;;;;;;;;;6114811;23;19921;-66
2024/01/23 11:11:08;;;;;;;25.48;4.55;;;;;;;;;;6116366;23;20049;-64
2024/01/23 11:13:49;;;;;;;21.42;3.72;;;;;;;;;;6116163;23;20320;-63
2024/01/23 11:16:23;;;;;;;;;;;;;;;;;;6117817;23;20468;-63
2024/01/23 11:18:52;;;;;;;29.55;4.50;;;;;;;;;;6118376;23;19920;-62
2024/01/23 11:21:22;;;;;;;30.90;5.07;;;;;;;;;;6118633;23;20515;-63
2024/01/23 11:24:00;;;;;;;29.50;4.75;;;;;;;;;;6117850;23;20737;-71
2024/01/23 11:27:01;;;;;;;27.67;4.45;;;;;;;;;;6083204;23;20097;-55
2024/01/23 11:29:36;;;;;;;33.95;4.78;;;;;;;;;;6087734;23;20050;-55
2024/01/23 11:32:25;;;;;;;25.00;3.88;;;;;;;;;;6088238;23;20030;-53
2024/01/23 11:35:02;;;;;;;29.92;5.00;;;;;;;;;;6088481;23;20030;-55
2024/01/23 11:37:41;;;;;;;30.30;5.38;;;;;;;;;;6088224;23;20030;-52
2024/01/23 11:40:29;;;;;;;37.97;5.95;;;;;;;;;;6088825;23;20393;-55
2024/01/23 11:43:05;;;;;;;24.52;4.18;;;;;;;;;;6090271;23;20058;-64
2024/01/23 11:45:35;;;;;;;35.05;4.72;;;;;;;;;;6089015;23;20030;-64
2024/01/23 11:48:04;;;;;;;29.08;4.22;;;;;;;;;;6088250;23;20032;-64
2024/01/23 11:50:38;;;;;;;37.63;5.03;;;;;;;;;;6088083;23;20027;-64
2024/01/23 11:53:06;;;;;;;;;;;;;;;;;;6089397;23;20551;-53
2024/01/23 11:55:40;;;;;;;29.98;4.05;;;;;;;;;;6086758;23;19976;-64
2024/01/23 11:58:08;;;;;;;36.30;5.15;;;;;;;;;;6088981;23;20022;-64
2024/01/23 12:00:35;;;;;;;27.92;4.53;;;;;;;;;;6088628;23;20022;-64
2024/01/23 12:03:20;;;;;;;23.02;4.00;;;;;;;;;;6084845;23;20085;-65
2024/01/23 12:05:49;;;;;;;28.45;5.03;;;;;;;;;;6087177;23;20101;-64
2024/01/23 12:08:23;;;;;;;28.05;5.05;;;;;;;;;;6088280;23;20523;-64
2024/01/23 12:10:51;;;;;;;27.35;4.90;;;;;;;;;;6085701;23;20555;-62
2024/01/23 12:13:18;;;;;;;30.45;4.28;;;;;;;;;;6088721;23;20031;-61
2024/01/23 12:15:52;;;;;;;35.83;5.28;;;;;;;;;;6089816;23;20030;-62
2024/01/23 12:18:23;;;;;;;37.22;5.28;;;;;;;;;;6087957;23;20460;-62
2024/01/23 12:20:57;;;;;;;36.10;5.45;;;;;;;;;;6087060;23;20026;-62
2024/01/23 12:23:25;;;;;;;;;;;;;;;;;;6090471;23;20516;-63
2024/01/23 12:25:53;;;;;;;35.40;4.80;;;;;;;;;;6109818;23;19924;-63
2024/01/23 12:28:29;;;;;;;40.38;6.78;;;;;;;;;;6117426;23;20028;-62
2024/01/23 12:30:56;;;;;;;27.23;4.15;;;;;;;;;;6116906;23;20022;-62
2024/01/23 12:33:30;;;;;;;28.75;4.10;;;;;;;;;;6118255;23;20030;-63
2024/01/23 12:36:01;;;;;;;32.67;5.55;;;;;;;;;;6118523;23;20081;-63
2024/01/23 12:38:35;;;;;;;30.33;4.47;;;;;;;;;;6119582;23;20021;-57
2024/01/23 12:41:06;;;;;;;;;;;;;;;;;;6116406;23;20084;-56
2024/01/23 12:43:35;;;;;;;30.98;5.32;;;;;;;;;;6118043;23;19917;-57
2024/01/23 12:46:14;;;;;;;24.52;4.70;;;;;;;;;;6118110;23;20480;-54
2024/01/23 12:48:42;;;;;;;23.08;4.53;;;;;;;;;;6119136;23;20204;-62
2024/01/23 12:51:16;;;;;;;27.67;5.07;;;;;;;;;;6117359;23;20443;-70
2024/01/23 12:53:44;;;;;;;;;;;;;;;;;;6116688;23;20440;-63
2024/01/23 12:56:11;;;;;;;36.60;5.13;;;;;;;;;;6117258;23;19921;-63
2024/01/23 12:58:45;;;;;;;32.33;3.92;;;;;;;;;;6116205;23;20468;-63
2024/01/23 13:04:11;;;;;;;28.10;4.90;;;;;;;;;;6025218;23;20241;-61
2024/01/23 13:06:39;;;;;;;27.80;5.45;;;;;;;;;;6041555;23;20026;-60
2024/01/23 13:09:32;;;;;;;26.98;4.30;;;;;;;;;;6039874;23;20133;-60
2024/01/23 13:12:26;;;;;;;43.22;6.38;;;;;;;;;;6041875;23;20031;-58
2024/01/23 13:15:30;;;;;;;28.15;4.60;;;;;;;;;;6048362;23;20026;-56
2024/01/23 13:18:23;;;;;;;35.42;5.43;;;;;;;;;;6046401;23;20061;-63
2024/01/23 13:21:11;;;;;;;31.95;6.40;;;;;;;;;;6053715;23;20019;-62
2024/01/23 13:24:05;;;;;;;34.78;5.10;;;;;;;;;;6057843;23;20030;-62
2024/01/23 13:26:52;;;;;;;34.33;5.82;;;;;;;;;;6055050;23;20330;-62
2024/01/23 13:29:46;;;;;;;26.90;4.70;;;;;;;;;;6057433;23;20061;-62
2024/01/23 13:32:33;;;;;;;31.30;5.25;;;;;;;;;;6058560;23;20101;-62
2024/01/23 13:35:27;;;;;;;24.67;4.35;;;;;;;;;;6058833;23;20023;-62
2024/01/23 13:38:21;;;;;;;29.40;4.85;;;;;;;;;;6058649;23;20023;-47
2024/01/23 13:41:22;;;;;;;33.90;5.55;;;;;;;;;;6059071;23;20524;-49
2024/01/23 13:44:09;;;;;;;25.02;4.47;;;;;;;;;;6058224;23;20034;-48
2024/01/23 13:47:03;;;;;;;36.80;5.20;;;;;;;;;;6056567;23;20029;-49
2024/01/23 13:49:57;;;;;;;34.35;5.03;;;;;;;;;;6058335;23;20034;-52
2024/01/23 13:52:51;;;;;;;25.02;4.28;;;;;;;;;;6058279;23;20496;-53
2024/01/23 13:55:45;;;;;;;25.92;4.05;;;;;;;;;;6057461;23;20033;-62
2024/01/23 13:58:32;;;;;;;21.98;3.55;;;;;;;;;;6058687;23;20027;-62
2024/01/23 14:01:26;;;;;;;24.23;4.30;;;;;;;;;;6063317;23;20022;-63
2024/01/23 14:04:20;;;;;;;26.40;4.00;;;;;;;;;;6058657;23;20098;-51
2024/01/23 14:07:14;;;;;;;25.90;4.25;;;;;;;;;;6058960;23;20039;-60
2024/01/23 14:10:01;;;;;;;24.85;4.35;;;;;;;;;;6057893;23;20030;-60
2024/01/23 14:12:55;;;;;;;31.60;5.45;;;;;;;;;;6057308;23;20043;-60
2024/01/23 14:15:42;;;;;;;25.60;3.88;;;;;;;;;;6057716;23;20026;-60
2024/01/23 14:18:36;;;;;;;34.65;4.95;;;;;;;;;;6056614;23;20563;-60
2024/01/23 14:21:24;;;;;;;29.60;4.25;;;;;;;;;;6057139;23;20034;-59
2024/01/23 14:24:17;;;;;;;24.80;3.80;;;;;;;;;;6058316;23;20019;-62
2024/01/23 14:27:11;;;;;;;31.40;4.45;;;;;;;;;;6057309;23;20023;-56
2024/01/23 14:29:59;;;;;;;29.38;4.80;;;;;;;;;;6056962;23;20091;-50
2024/01/23 14:32:53;;;;;;;23.60;3.88;;;;;;;;;;6057067;23;20356;-55
2024/01/23 14:35:41;;;;;;;28.55;4.13;;;;;;;;;;6058869;23;20026;-52
2024/01/23 14:38:34;;;;;;;29.60;4.38;;;;;;;;;;6057463;23;20046;-54
2024/01/23 14:41:21;;;;;;;27.42;4.88;;;;;;;;;;6058426;23;20031;-61
2024/01/23 14:44:15;;;;;;;30.10;3.38;;;;;;;;;;6057717;23;20086;-61
2024/01/23 14:47:05;;;;;;;24.92;3.75;;;;;;;;;;6058174;23;20037;-61
2024/01/23 14:49:57;;;;;;;29.15;3.97;;;;;;;;;;6059634;23;20078;-61
2024/01/23 14:52:45;;;;;;;32.88;4.32;;;;;;;;;;6059322;23;20049;-62
2024/01/23 14:55:38;;;;;;;30.65;5.07;;;;;;;;;;6059892;23;20026;-61
2024/01/23 14:58:26;;;;;;;30.20;4.63;;;;;;;;;;6059653;23;20023;-61
2024/01/23 15:01:19;;;;;;;29.77;4.25;;;;;;;;;;6060351;23;20023;-61
2024/01/23 15:04:14;;;;;;;27.20;4.40;;;;;;;;;;6088565;23;20543;-62
2024/01/23 15:07:07;;;;;;;34.47;5.00;;;;;;;;;;6088950;23;20023;-62
2024/01/23 15:09:55;;;;;;;29.98;4.05;;;;;;;;;;6088026;23;20085;-49
2024/01/23 15:12:49;;;;;;;29.55;3.65;;;;;;;;;;6087511;23;20109;-55
2024/01/23 15:15:36;;;;;;;39.28;4.60;;;;;;;;;;6087615;23;20035;-53
2024/01/23 15:18:30;;;;;;;34.95;4.43;;;;;;;;;;6087901;23;20026;-54
2024/01/23 15:21:18;;;;;;;34.00;5.80;;;;;;;;;;6088250;23;20026;-53
2024/01/23 15:24:12;;;;;;;28.27;4.22;;;;;;;;;;6085076;23;20022;-57